sensor_id;sensor_type;location;lat;lon;timestamp;pressure;altitude;pressure_sealevel;temperature;humidity
35888;BME280;21990;42.540;23.496;2023-03-21T00:00:36;93390.19;;;7.96;72.47
35888;BME280;21990;42.540;23.496;2023-03-21T00:03:02;93382.84;;;7.88;72.92
35888;BME280;21990;42.540;23.496;2023-03-21T00:05:28;93384.59;;;7.91;72.65
35888;BME280;21990;42.540;23.496;2023-03-21T00:07:53;93382.81;;;7.93;72.88
35888;BME280;21990;42.540;23.496;2023-03-21T00:10:19;93372.88;;;7.92;72.47
35888;BME280;21990;42.540;23.496;2023-03-21T00:12:45;93366.03;;;7.88;73.74
35888;BME280;21990;42.540;23.496;2023-03-21T00:15:14;93359.09;;;7.94;73.82
35888;BME280;21990;42.540;23.496;2023-03-21T00:17:43;93355.88;;;7.79;73.37
35888;BME280;21990;42.540;23.496;2023-03-21T00:20:09;93351.78;;;7.80;73.40
35888;BME280;21990;42.540;23.496;2023-03-21T00:22:40;93353.81;;;7.85;74.36
35888;BME280;21990;42.540;23.496;2023-03-21T00:25:06;93351.28;;;7.82;73.90
35888;BME280;21990;42.540;23.496;2023-03-21T00:27:33;93351.28;;;7.82;73.07
35888;BME280;21990;42.540;23.496;2023-03-21T00:29:58;93354.81;;;7.88;73.79
35888;BME280;21990;42.540;23.496;2023-03-21T00:32:24;93348.69;;;7.89;74.10
35888;BME280;21990;42.540;23.496;2023-03-21T00:34:50;93352.03;;;7.82;73.93
35888;BME280;21990;42.540;23.496;2023-03-21T00:37:16;93341.09;;;7.79;73.85
35888;BME280;21990;42.540;23.496;2023-03-21T00:39:44;93348.00;;;7.78;73.22
35888;BME280;21990;42.540;23.496;2023-03-21T00:42:13;93341.66;;;7.72;73.29
35888;BME280;21990;42.540;23.496;2023-03-21T00:44:39;93349.00;;;7.75;72.94
35888;BME280;21990;42.540;23.496;2023-03-21T00:47:06;93350.06;;;7.72;73.58
35888;BME280;21990;42.540;23.496;2023-03-21T00:49:31;93349.84;;;7.64;73.53
35888;BME280;21990;42.540;23.496;2023-03-21T00:52:00;93355.94;;;7.68;74.26
35888;BME280;21990;42.540;23.496;2023-03-21T00:54:26;93346.56;;;7.60;73.33
35888;BME280;21990;42.540;23.496;2023-03-21T00:56:52;93341.22;;;7.56;73.86
35888;BME280;21990;42.540;23.496;2023-03-21T00:59:17;93341.31;;;7.45;73.64
35888;BME280;21990;42.540;23.496;2023-03-21T01:01:43;93348.22;;;7.39;73.68
35888;BME280;21990;42.540;23.496;2023-03-21T01:04:11;93352.25;;;7.43;75.56
35888;BME280;21990;42.540;23.496;2023-03-21T01:06:40;93352.00;;;7.47;75.68
35888;BME280;21990;42.540;23.496;2023-03-21T01:09:19;93350.00;;;7.42;74.69
35888;BME280;21990;42.540;23.496;2023-03-21T01:11:45;93347.97;;;7.37;74.92
35888;BME280;21990;42.540;23.496;2023-03-21T01:14:12;93346.75;;;7.27;74.73
35888;BME280;21990;42.540;23.496;2023-03-21T01:16:38;93347.75;;;7.29;75.47
35888;BME280;21990;42.540;23.496;2023-03-21T01:19:05;93347.00;;;7.29;76.28
35888;BME280;21990;42.540;23.496;2023-03-21T01:21:31;93342.94;;;7.24;76.32
35888;BME280;21990;42.540;23.496;2023-03-21T01:23:56;93345.50;;;7.16;75.75
35888;BME280;21990;42.540;23.496;2023-03-21T01:26:22;93351.16;;;7.11;75.98
35888;BME280;21990;42.540;23.496;2023-03-21T01:28:47;93340.19;;;7.13;76.31
35888;BME280;21990;42.540;23.496;2023-03-21T01:31:17;93339.94;;;7.11;75.91
35888;BME280;21990;42.540;23.496;2023-03-21T01:33:43;93334.63;;;7.07;75.39
35888;BME280;21990;42.540;23.496;2023-03-21T01:36:22;93341.72;;;7.08;75.74
35888;BME280;21990;42.540;23.496;2023-03-21T01:38:49;93337.94;;;7.00;75.48
35888;BME280;21990;42.540;23.496;2023-03-21T01:41:24;93333.91;;;6.96;74.91
35888;BME280;21990;42.540;23.496;2023-03-21T01:43:51;93327.28;;;6.93;75.52
35888;BME280;21990;42.540;23.496;2023-03-21T01:46:37;93326.56;;;6.87;76.38
35888;BME280;21990;42.540;23.496;2023-03-21T01:49:26;93333.97;;;6.79;75.37
35888;BME280;21990;42.540;23.496;2023-03-21T01:52:00;93335.50;;;6.75;75.62
35888;BME280;21990;42.540;23.496;2023-03-21T01:54:29;93329.13;;;6.74;76.12
35888;BME280;21990;42.540;23.496;2023-03-21T01:56:58;93330.38;;;6.79;76.63
35888;BME280;21990;42.540;23.496;2023-03-21T01:59:30;93342.59;;;6.81;77.04
35888;BME280;21990;42.540;23.496;2023-03-21T02:02:01;93339.81;;;6.76;76.21
35888;BME280;21990;42.540;23.496;2023-03-21T02:04:32;93340.81;;;6.78;76.88
35888;BME280;21990;42.540;23.496;2023-03-21T02:07:04;93343.16;;;6.68;76.98
35888;BME280;21990;42.540;23.496;2023-03-21T02:09:34;93343.94;;;6.69;77.00
35888;BME280;21990;42.540;23.496;2023-03-21T02:12:02;93356.91;;;6.66;76.68
35888;BME280;21990;42.540;23.496;2023-03-21T02:14:29;93345.69;;;6.66;77.19
35888;BME280;21990;42.540;23.496;2023-03-21T02:17:43;93349.53;;;6.63;77.40
35888;BME280;21990;42.540;23.496;2023-03-21T02:30:40;93344.75;;;6.42;78.99
35888;BME280;21990;42.540;23.496;2023-03-21T02:43:51;93335.09;;;6.20;79.21
35888;BME280;21990;42.540;23.496;2023-03-21T02:46:25;93332.56;;;6.17;79.12
35888;BME280;21990;42.540;23.496;2023-03-21T02:49:04;93330.78;;;6.19;78.96
35888;BME280;21990;42.540;23.496;2023-03-21T02:51:32;93334.88;;;6.18;78.56
35888;BME280;21990;42.540;23.496;2023-03-21T02:54:04;93335.63;;;6.13;78.55
35888;BME280;21990;42.540;23.496;2023-03-21T02:56:31;93342.72;;;6.20;79.32
35888;BME280;21990;42.540;23.496;2023-03-21T02:58:59;93345.53;;;6.20;80.10
35888;BME280;21990;42.540;23.496;2023-03-21T03:01:25;93342.22;;;6.16;79.70
35888;BME280;21990;42.540;23.496;2023-03-21T03:03:53;93340.72;;;6.09;79.40
35888;BME280;21990;42.540;23.496;2023-03-21T03:06:22;93342.50;;;6.01;79.28
35888;BME280;21990;42.540;23.496;2023-03-21T03:12:23;93337.13;;;6.03;80.58
35888;BME280;21990;42.540;23.496;2023-03-21T03:15:02;93334.59;;;6.05;79.74
35888;BME280;21990;42.540;23.496;2023-03-21T03:17:50;93339.69;;;5.96;79.42
35888;BME280;21990;42.540;23.496;2023-03-21T03:20:28;93333.56;;;5.92;79.33
35888;BME280;21990;42.540;23.496;2023-03-21T03:25:34;93324.44;;;5.91;78.87
35888;BME280;21990;42.540;23.496;2023-03-21T03:28:03;93324.19;;;5.89;79.11
35888;BME280;21990;42.540;23.496;2023-03-21T03:30:30;93319.84;;;5.88;79.17
35888;BME280;21990;42.540;23.496;2023-03-21T03:33:00;93330.03;;;5.91;79.00
35888;BME280;21990;42.540;23.496;2023-03-21T03:35:28;93318.06;;;5.85;79.38
35888;BME280;21990;42.540;23.496;2023-03-21T03:37:57;93315.00;;;5.78;80.48
35888;BME280;21990;42.540;23.496;2023-03-21T03:40:29;93314.25;;;5.77;79.67
35888;BME280;21990;42.540;23.496;2023-03-21T03:43:02;93326.94;;;5.67;79.68
35888;BME280;21990;42.540;23.496;2023-03-21T03:45:34;93326.44;;;5.63;79.77
35888;BME280;21990;42.540;23.496;2023-03-21T03:48:35;93322.09;;;5.56;79.75
35888;BME280;21990;42.540;23.496;2023-03-21T03:51:15;93330.72;;;5.53;79.82
35888;BME280;21990;42.540;23.496;2023-03-21T03:53:50;93322.59;;;5.49;81.00
35888;BME280;21990;42.540;23.496;2023-03-21T03:56:17;93331.50;;;5.48;80.95
35888;BME280;21990;42.540;23.496;2023-03-21T03:58:45;93329.94;;;5.41;80.62
35888;BME280;21990;42.540;23.496;2023-03-21T04:01:10;93328.16;;;5.38;80.60
35888;BME280;21990;42.540;23.496;2023-03-21T04:03:39;93323.09;;;5.31;80.86
35888;BME280;21990;42.540;23.496;2023-03-21T04:06:06;93343.91;;;5.30;81.02
35888;BME280;21990;42.540;23.496;2023-03-21T04:08:31;93344.16;;;5.26;81.26
35888;BME280;21990;42.540;23.496;2023-03-21T04:10:57;93340.59;;;5.20;82.28
35888;BME280;21990;42.540;23.496;2023-03-21T04:13:23;93343.63;;;5.17;80.87
35888;BME280;21990;42.540;23.496;2023-03-21T04:15:50;93334.97;;;5.09;80.85
35888;BME280;21990;42.540;23.496;2023-03-21T04:18:15;93332.19;;;5.09;81.20
35888;BME280;21990;42.540;23.496;2023-03-21T04:20:41;93335.44;;;5.02;81.71
35888;BME280;21990;42.540;23.496;2023-03-21T04:23:08;93336.47;;;5.05;82.10
35888;BME280;21990;42.540;23.496;2023-03-21T04:25:35;93331.91;;;5.02;82.51
35888;BME280;21990;42.540;23.496;2023-03-21T04:28:01;93337.50;;;5.02;81.96
35888;BME280;21990;42.540;23.496;2023-03-21T04:30:26;93330.84;;;4.94;81.94
35888;BME280;21990;42.540;23.496;2023-03-21T04:32:52;93318.94;;;4.93;82.02
35888;BME280;21990;42.540;23.496;2023-03-21T04:35:22;93333.91;;;4.96;82.48
35888;BME280;21990;42.540;23.496;2023-03-21T04:37:49;93331.38;;;4.98;82.52
35888;BME280;21990;42.540;23.496;2023-03-21T04:40:15;93330.59;;;4.92;82.26
35888;BME280;21990;42.540;23.496;2023-03-21T04:42:45;93330.34;;;4.90;82.81
35888;BME280;21990;42.540;23.496;2023-03-21T04:45:12;93333.41;;;4.97;82.70
35888;BME280;21990;42.540;23.496;2023-03-21T04:47:38;93336.16;;;4.92;81.85
35888;BME280;21990;42.540;23.496;2023-03-21T04:50:04;93337.19;;;4.94;81.88
35888;BME280;21990;42.540;23.496;2023-03-21T04:52:29;93330.59;;;4.92;82.26
35888;BME280;21990;42.540;23.496;2023-03-21T04:54:55;93336.19;;;4.97;82.63
35888;BME280;21990;42.540;23.496;2023-03-21T04:57:20;93335.19;;;5.06;83.07
35888;BME280;21990;42.540;23.496;2023-03-21T04:59:46;93344.34;;;5.01;83.46
35888;BME280;21990;42.540;23.496;2023-03-21T05:02:12;93348.06;;;4.87;83.34
35888;BME280;21990;42.540;23.496;2023-03-21T05:04:38;93352.16;;;4.91;83.52
35888;BME280;21990;42.540;23.496;2023-03-21T05:07:04;93353.94;;;4.94;83.65
35888;BME280;21990;42.540;23.496;2023-03-21T05:09:29;93349.41;;;5.02;83.54
35888;BME280;21990;42.540;23.496;2023-03-21T05:11:55;93344.81;;;4.99;83.46
35888;BME280;21990;42.540;23.496;2023-03-21T05:14:23;93344.56;;;4.97;83.84
35888;BME280;21990;42.540;23.496;2023-03-21T05:16:50;93344.59;;;5.08;83.61
35888;BME280;21990;42.540;23.496;2023-03-21T05:19:25;93345.13;;;5.12;83.27
35888;BME280;21990;42.540;23.496;2023-03-21T05:22:09;93335.50;;;5.13;82.85
35888;BME280;21990;42.540;23.496;2023-03-21T05:24:35;93342.31;;;5.07;82.89
35888;BME280;21990;42.540;23.496;2023-03-21T05:27:03;93346.16;;;5.15;84.01
35888;BME280;21990;42.540;23.496;2023-03-21T05:29:30;93337.28;;;5.16;83.76
35888;BME280;21990;42.540;23.496;2023-03-21T05:31:58;93342.38;;;5.23;83.61
35888;BME280;21990;42.540;23.496;2023-03-21T05:34:24;93345.69;;;5.28;83.74
35888;BME280;21990;42.540;23.496;2023-03-21T05:36:49;93341.88;;;5.31;83.86
35888;BME280;21990;42.540;23.496;2023-03-21T05:39:15;93345.69;;;5.39;83.79
35888;BME280;21990;42.540;23.496;2023-03-21T05:41:41;93345.44;;;5.42;83.22
35888;BME280;21990;42.540;23.496;2023-03-21T05:44:06;93345.72;;;5.44;82.95
35888;BME280;21990;42.540;23.496;2023-03-21T05:46:32;93345.72;;;5.50;84.59
35888;BME280;21990;42.540;23.496;2023-03-21T05:48:57;93333.53;;;5.53;84.33
35888;BME280;21990;42.540;23.496;2023-03-21T05:51:23;93330.97;;;5.49;84.29
35888;BME280;21990;42.540;23.496;2023-03-21T05:53:48;93333.78;;;5.55;84.87
35888;BME280;21990;42.540;23.496;2023-03-21T05:56:14;93329.22;;;5.57;84.48
35888;BME280;21990;42.540;23.496;2023-03-21T05:58:40;93334.03;;;5.57;84.55
35888;BME280;21990;42.540;23.496;2023-03-21T06:01:06;93327.69;;;5.56;84.49
35888;BME280;21990;42.540;23.496;2023-03-21T06:03:32;93334.06;;;5.62;83.93
35888;BME280;21990;42.540;23.496;2023-03-21T06:05:57;93333.03;;;5.65;83.89
35888;BME280;21990;42.540;23.496;2023-03-21T06:08:23;93332.03;;;5.63;83.88
35888;BME280;21990;42.540;23.496;2023-03-21T06:10:48;93331.00;;;5.55;84.31
35888;BME280;21990;42.540;23.496;2023-03-21T06:13:14;93323.88;;;5.43;85.26
35888;BME280;21990;42.540;23.496;2023-03-21T06:15:40;93325.66;;;5.51;85.46
35888;BME280;21990;42.540;23.496;2023-03-21T06:18:05;93322.38;;;5.58;85.17
35888;BME280;21990;42.540;23.496;2023-03-21T06:20:31;93313.47;;;5.65;85.33
35888;BME280;21990;42.540;23.496;2023-03-21T06:22:57;93316.25;;;5.65;84.95
35888;BME280;21990;42.540;23.496;2023-03-21T06:25:22;93319.59;;;5.64;85.39
35888;BME280;21990;42.540;23.496;2023-03-21T06:27:48;93314.22;;;5.60;85.16
35888;BME280;21990;42.540;23.496;2023-03-21T06:30:14;93319.31;;;5.62;85.68
35888;BME280;21990;42.540;23.496;2023-03-21T06:32:39;93309.66;;;5.74;85.91
35888;BME280;21990;42.540;23.496;2023-03-21T06:35:05;93313.75;;;5.90;85.50
35888;BME280;21990;42.540;23.496;2023-03-21T06:37:31;93310.69;;;5.88;85.40
35888;BME280;21990;42.540;23.496;2023-03-21T06:39:57;93315.03;;;5.94;86.08
35888;BME280;21990;42.540;23.496;2023-03-21T06:42:22;93307.63;;;6.08;85.87
35888;BME280;21990;42.540;23.496;2023-03-21T06:44:47;93316.25;;;6.27;85.77
35888;BME280;21990;42.540;23.496;2023-03-21T06:47:13;93317.25;;;6.46;85.56
35888;BME280;21990;42.540;23.496;2023-03-21T06:49:39;93332.72;;;6.69;85.22
35888;BME280;21990;42.540;23.496;2023-03-21T06:52:07;93317.88;;;6.91;86.39
35888;BME280;21990;42.540;23.496;2023-03-21T06:54:32;93328.25;;;7.07;85.14
35888;BME280;21990;42.540;23.496;2023-03-21T06:56:58;93326.59;;;7.34;86.78
35888;BME280;21990;42.540;23.496;2023-03-21T06:59:23;93316.25;;;7.58;84.11
35888;BME280;21990;42.540;23.496;2023-03-21T07:01:48;93318.13;;;7.80;82.08
35888;BME280;21990;42.540;23.496;2023-03-21T07:04:14;93320.81;;;7.97;81.42
35888;BME280;21990;42.540;23.496;2023-03-21T07:06:40;93318.59;;;8.20;83.00
35888;BME280;21990;42.540;23.496;2023-03-21T07:09:05;93314.53;;;8.45;81.43
35888;BME280;21990;42.540;23.496;2023-03-21T07:11:31;93317.78;;;8.54;79.42
35888;BME280;21990;42.540;23.496;2023-03-21T07:13:57;93328.03;;;8.52;78.60
35888;BME280;21990;42.540;23.496;2023-03-21T07:16:23;93330.94;;;8.65;78.69
35888;BME280;21990;42.540;23.496;2023-03-21T07:18:49;93327.78;;;8.74;78.66
35888;BME280;21990;42.540;23.496;2023-03-21T07:21:14;93319.97;;;9.10;82.07
35888;BME280;21990;42.540;23.496;2023-03-21T07:23:40;93319.69;;;9.70;83.38
35888;BME280;21990;42.540;23.496;2023-03-21T07:26:07;93316.91;;;10.01;78.47
35888;BME280;21990;42.540;23.496;2023-03-21T07:28:33;93313.88;;;10.31;74.89
35888;BME280;21990;42.540;23.496;2023-03-21T07:31:01;93303.75;;;10.41;73.44
35888;BME280;21990;42.540;23.496;2023-03-21T07:33:29;93308.28;;;10.44;72.31
35888;BME280;21990;42.540;23.496;2023-03-21T07:35:55;93296.19;;;10.50;71.60
35888;BME280;21990;42.540;23.496;2023-03-21T07:38:22;93294.25;;;10.58;71.44
35888;BME280;21990;42.540;23.496;2023-03-21T07:40:49;93297.63;;;10.69;72.52
35888;BME280;21990;42.540;23.496;2023-03-21T07:43:15;93295.44;;;10.75;71.42
35888;BME280;21990;42.540;23.496;2023-03-21T07:45:42;93291.44;;;10.84;71.81
35888;BME280;21990;42.540;23.496;2023-03-21T07:48:09;93285.91;;;10.91;71.49
35888;BME280;21990;42.540;23.496;2023-03-21T07:50:35;93289.59;;;10.86;69.35
35888;BME280;21990;42.540;23.496;2023-03-21T07:53:00;93286.91;;;10.81;69.19
35888;BME280;21990;42.540;23.496;2023-03-21T07:55:26;93291.44;;;10.84;69.84
35888;BME280;21990;42.540;23.496;2023-03-21T07:57:52;93292.53;;;10.94;70.15
35888;BME280;21990;42.540;23.496;2023-03-21T08:00:19;93299.13;;;11.10;70.02
35888;BME280;21990;42.540;23.496;2023-03-21T08:02:51;93295.34;;;11.20;69.60
35888;BME280;21990;42.540;23.496;2023-03-21T08:05:48;93295.31;;;11.33;68.65
35888;BME280;21990;42.540;23.496;2023-03-21T08:08:14;93285.56;;;11.34;68.84
35888;BME280;21990;42.540;23.496;2023-03-21T08:10:42;93295.31;;;11.47;69.38
35888;BME280;21990;42.540;23.496;2023-03-21T08:13:08;93301.13;;;11.62;68.56
35888;BME280;21990;42.540;23.496;2023-03-21T08:15:34;93289.69;;;11.67;68.88
35888;BME280;21990;42.540;23.496;2023-03-21T08:17:59;93289.50;;;11.78;67.65
35888;BME280;21990;42.540;23.496;2023-03-21T08:20:25;93296.66;;;11.79;66.76
35888;BME280;21990;42.540;23.496;2023-03-21T08:22:51;93292.34;;;11.78;66.16
35888;BME280;21990;42.540;23.496;2023-03-21T08:25:18;93279.28;;;11.75;65.88
35888;BME280;21990;42.540;23.496;2023-03-21T08:27:45;93288.41;;;11.81;65.31
35888;BME280;21990;42.540;23.496;2023-03-21T08:30:13;93282.06;;;11.88;65.84
35888;BME280;21990;42.540;23.496;2023-03-21T08:32:40;93279.75;;;12.00;64.50
35888;BME280;21990;42.540;23.496;2023-03-21T08:35:08;93282.91;;;11.97;63.69
35888;BME280;21990;42.540;23.496;2023-03-21T08:37:38;93285.75;;;11.97;64.01
35888;BME280;21990;42.540;23.496;2023-03-21T08:40:05;93274.53;;;12.04;62.42
35888;BME280;21990;42.540;23.496;2023-03-21T08:42:33;93284.72;;;12.07;62.06
35888;BME280;21990;42.540;23.496;2023-03-21T08:44:59;93284.56;;;11.92;62.95
35888;BME280;21990;42.540;23.496;2023-03-21T08:47:24;93284.72;;;11.86;62.79
35888;BME280;21990;42.540;23.496;2023-03-21T08:49:50;93269.81;;;11.86;62.82
35888;BME280;21990;42.540;23.496;2023-03-21T08:52:15;93279.59;;;11.85;63.07
35888;BME280;21990;42.540;23.496;2023-03-21T08:54:41;93272.00;;;11.80;63.03
35888;BME280;21990;42.540;23.496;2023-03-21T08:57:08;93272.09;;;11.87;62.55
35888;BME280;21990;42.540;23.496;2023-03-21T08:59:35;93273.63;;;12.09;63.11
35888;BME280;21990;42.540;23.496;2023-03-21T09:02:01;93276.03;;;12.26;64.40
35888;BME280;21990;42.540;23.496;2023-03-21T09:04:26;93273.91;;;12.40;62.52
35888;BME280;21990;42.540;23.496;2023-03-21T09:06:52;93274.75;;;12.48;61.04
35888;BME280;21990;42.540;23.496;2023-03-21T09:09:20;93271.22;;;12.55;60.74
35888;BME280;21990;42.540;23.496;2023-03-21T09:11:46;93267.91;;;12.64;62.32
35888;BME280;21990;42.540;23.496;2023-03-21T09:14:11;93260.66;;;12.76;63.13
35888;BME280;21990;42.540;23.496;2023-03-21T09:16:37;93267.66;;;12.82;62.19
35888;BME280;21990;42.540;23.496;2023-03-21T09:19:02;93260.13;;;12.85;60.48
35888;BME280;21990;42.540;23.496;2023-03-21T09:21:29;93255.63;;;12.90;60.53
35888;BME280;21990;42.540;23.496;2023-03-21T09:23:56;93249.66;;;13.01;60.71
35888;BME280;21990;42.540;23.496;2023-03-21T09:26:24;93243.38;;;12.87;61.06
35888;BME280;21990;42.540;23.496;2023-03-21T09:28:50;93248.63;;;13.11;62.90
35888;BME280;21990;42.540;23.496;2023-03-21T09:31:17;93233.09;;;13.33;60.47
35888;BME280;21990;42.540;23.496;2023-03-21T09:33:46;93230.34;;;13.56;61.58
35888;BME280;21990;42.540;23.496;2023-03-21T09:36:11;93227.78;;;13.81;60.98
35888;BME280;21990;42.540;23.496;2023-03-21T09:38:45;93221.97;;;14.01;60.52
35888;BME280;21990;42.540;23.496;2023-03-21T09:47:03;93221.66;;;14.58;56.57
35888;BME280;21990;42.540;23.496;2023-03-21T09:49:40;93214.28;;;14.70;56.70
35888;BME280;21990;42.540;23.496;2023-03-21T09:52:18;93218.97;;;14.83;53.97
35888;BME280;21990;42.540;23.496;2023-03-21T09:54:46;93209.72;;;14.90;52.88
35888;BME280;21990;42.540;23.496;2023-03-21T09:57:30;93212.72;;;14.92;51.09
35888;BME280;21990;42.540;23.496;2023-03-21T09:59:59;93208.19;;;14.96;51.28
35888;BME280;21990;42.540;23.496;2023-03-21T10:02:42;93204.44;;;14.94;50.28
35888;BME280;21990;42.540;23.496;2023-03-21T10:05:18;93192.69;;;14.97;50.79
35888;BME280;21990;42.540;23.496;2023-03-21T10:10:25;93182.41;;;15.25;48.62
35888;BME280;21990;42.540;23.496;2023-03-21T10:12:54;93170.94;;;15.47;50.60
35888;BME280;21990;42.540;23.496;2023-03-21T10:15:23;93181.34;;;15.60;47.24
35888;BME280;21990;42.540;23.496;2023-03-21T10:17:56;93177.94;;;15.46;44.85
35888;BME280;21990;42.540;23.496;2023-03-21T10:20:29;93190.38;;;15.66;46.23
35888;BME280;21990;42.540;23.496;2023-03-21T10:22:57;93179.34;;;15.78;45.15
35888;BME280;21990;42.540;23.496;2023-03-21T10:25:29;93188.72;;;15.88;44.69
35888;BME280;21990;42.540;23.496;2023-03-21T10:27:56;93188.72;;;15.88;44.04
35888;BME280;21990;42.540;23.496;2023-03-21T10:33:02;93198.78;;;15.89;41.42
35888;BME280;21990;42.540;23.496;2023-03-21T10:35:31;93198.91;;;15.98;44.04
35888;BME280;21990;42.540;23.496;2023-03-21T10:38:01;93189.94;;;16.09;42.38
35888;BME280;21990;42.540;23.496;2023-03-21T10:40:27;93187.75;;;16.25;42.97
35888;BME280;21990;42.540;23.496;2023-03-21T10:43:16;93179.44;;;16.44;43.61
35888;BME280;21990;42.540;23.496;2023-03-21T10:45:47;93172.53;;;16.55;40.95
35888;BME280;21990;42.540;23.496;2023-03-21T10:48:12;93173.59;;;16.67;43.48
35888;BME280;21990;42.540;23.496;2023-03-21T10:50:38;93181.06;;;16.80;44.18
35888;BME280;21990;42.540;23.496;2023-03-21T10:53:13;93166.00;;;16.87;42.75
35888;BME280;21990;42.540;23.496;2023-03-21T10:55:40;93158.16;;;16.95;41.37
35888;BME280;21990;42.540;23.496;2023-03-21T10:58:13;93152.47;;;16.95;40.10
35888;BME280;21990;42.540;23.496;2023-03-21T11:00:44;93154.97;;;16.91;41.01
35888;BME280;21990;42.540;23.496;2023-03-21T11:03:34;93156.91;;;17.05;41.71
35888;BME280;21990;42.540;23.496;2023-03-21T11:08:46;93143.56;;;16.74;40.41
35888;BME280;21990;42.540;23.496;2023-03-21T11:11:24;93150.00;;;16.74;42.41
35888;BME280;21990;42.540;23.496;2023-03-21T11:14:00;93131.94;;;16.79;41.72
35888;BME280;21990;42.540;23.496;2023-03-21T11:19:13;93134.88;;;16.72;39.47
35888;BME280;21990;42.540;23.496;2023-03-21T11:21:39;93136.19;;;16.71;40.59
35888;BME280;21990;42.540;23.496;2023-03-21T11:24:05;93135.78;;;16.74;39.65
35888;BME280;21990;42.540;23.496;2023-03-21T11:26:36;93130.78;;;16.82;41.09
35888;BME280;21990;42.540;23.496;2023-03-21T11:29:38;93127.34;;;17.01;41.84
35888;BME280;21990;42.540;23.496;2023-03-21T11:34:50;93130.34;;;17.20;43.51
35888;BME280;21990;42.540;23.496;2023-03-21T11:37:44;93130.25;;;17.28;42.20
35888;BME280;21990;42.540;23.496;2023-03-21T11:40:27;93127.91;;;17.17;41.02
35888;BME280;21990;42.540;23.496;2023-03-21T11:45:30;93119.47;;;17.26;41.49
35888;BME280;21990;42.540;23.496;2023-03-21T11:47:58;93108.75;;;17.34;41.04
35888;BME280;21990;42.540;23.496;2023-03-21T11:50:43;93118.63;;;17.33;39.24
35888;BME280;21990;42.540;23.496;2023-03-21T11:56:34;93097.25;;;17.42;41.15
35888;BME280;21990;42.540;23.496;2023-03-21T12:05:04;93096.50;;;17.59;42.89
35888;BME280;21990;42.540;23.496;2023-03-21T12:07:56;93092.88;;;17.58;43.09
35888;BME280;21990;42.540;23.496;2023-03-21T12:19:12;93090.09;;;17.68;42.43
35888;BME280;21990;42.540;23.496;2023-03-21T12:24:19;93072.63;;;17.81;42.67
35888;BME280;21990;42.540;23.496;2023-03-21T12:29:29;93077.91;;;17.94;45.39
35888;BME280;21990;42.540;23.496;2023-03-21T12:40:38;93066.78;;;17.88;41.92
35888;BME280;21990;42.540;23.496;2023-03-21T12:45:54;93062.56;;;17.80;41.17
35888;BME280;21990;42.540;23.496;2023-03-21T12:48:32;93060.56;;;17.73;40.94
35888;BME280;21990;42.540;23.496;2023-03-21T12:51:01;93054.13;;;17.72;41.96
35888;BME280;21990;42.540;23.496;2023-03-21T12:56:26;93055.22;;;17.86;41.72
35888;BME280;21990;42.540;23.496;2023-03-21T12:59:10;93053.63;;;17.93;43.10
35888;BME280;21990;42.540;23.496;2023-03-21T13:01:41;93046.09;;;17.88;42.66
35888;BME280;21990;42.540;23.496;2023-03-21T13:06:51;93037.38;;;17.86;42.55
35888;BME280;21990;42.540;23.496;2023-03-21T13:09:25;93037.69;;;17.90;42.81
35888;BME280;21990;42.540;23.496;2023-03-21T13:11:55;93047.88;;;17.83;42.83
35888;BME280;21990;42.540;23.496;2023-03-21T13:14:27;93050.06;;;17.75;42.56
35888;BME280;21990;42.540;23.496;2023-03-21T13:17:03;93041.31;;;17.64;43.20
35888;BME280;21990;42.540;23.496;2023-03-21T13:24:42;93037.25;;;17.57;43.31
35888;BME280;21990;42.540;23.496;2023-03-21T13:27:26;93035.72;;;17.29;41.73
35888;BME280;21990;42.540;23.496;2023-03-21T13:30:03;93042.50;;;17.17;41.77
35888;BME280;21990;42.540;23.496;2023-03-21T13:32:38;93031.41;;;16.94;41.57
35888;BME280;21990;42.540;23.496;2023-03-21T13:37:38;93026.00;;;16.88;42.46
35888;BME280;21990;42.540;23.496;2023-03-21T13:40:11;93020.88;;;17.04;43.75
35888;BME280;21990;42.540;23.496;2023-03-21T13:43:30;93017.94;;;17.12;40.90
35888;BME280;21990;42.540;23.496;2023-03-21T13:45:53;93030.56;;;17.18;42.59
35888;BME280;21990;42.540;23.496;2023-03-21T13:51:07;93020.88;;;16.87;41.55
35888;BME280;21990;42.540;23.496;2023-03-21T13:53:40;93031.03;;;16.80;41.33
35888;BME280;21990;42.540;23.496;2023-03-21T14:03:49;93027.44;;;16.63;41.07
35888;BME280;21990;42.540;23.496;2023-03-21T14:06:23;93023.47;;;16.41;
35888;BME280;21990;42.540;23.496;2023-03-21T14:08:56;93019.09;;;16.23;40.65
35888;BME280;21990;42.540;23.496;2023-03-21T14:11:22;93023.84;;;16.20;40.73
35888;BME280;21990;42.540;23.496;2023-03-21T14:13:48;93015.06;;;16.08;40.89
35888;BME280;21990;42.540;23.496;2023-03-21T14:16:15;93022.69;;;16.06;40.31
35888;BME280;21990;42.540;23.496;2023-03-21T14:18:53;93031.56;;;15.85;40.76
35888;BME280;21990;42.540;23.496;2023-03-21T14:21:22;93028.72;;;15.85;40.29
35888;BME280;21990;42.540;23.496;2023-03-21T14:24:06;93030.69;;;15.75;41.77
35888;BME280;21990;42.540;23.496;2023-03-21T14:26:35;93033.59;;;15.68;41.61
35888;BME280;21990;42.540;23.496;2023-03-21T14:29:03;93031.69;;;15.70;41.23
35888;BME280;21990;42.540;23.496;2023-03-21T14:31:31;93032.72;;;15.57;41.97
35888;BME280;21990;42.540;23.496;2023-03-21T14:33:58;93029.75;;;15.48;42.73
35888;BME280;21990;42.540;23.496;2023-03-21T14:36:28;93031.75;;;15.62;41.60
35888;BME280;21990;42.540;23.496;2023-03-21T14:41:46;93024.13;;;15.65;41.76
35888;BME280;21990;42.540;23.496;2023-03-21T14:47:06;93020.44;;;15.55;42.32
35888;BME280;21990;42.540;23.496;2023-03-21T14:49:36;93026.47;;;15.59;41.79
35888;BME280;21990;42.540;23.496;2023-03-21T14:52:08;93013.25;;;15.54;42.63
35888;BME280;21990;42.540;23.496;2023-03-21T14:54:38;93028.78;;;15.45;42.26
35888;BME280;21990;42.540;23.496;2023-03-21T14:57:09;93024.25;;;15.50;42.67
35888;BME280;21990;42.540;23.496;2023-03-21T14:59:37;93021.97;;;15.48;43.28